Data for 02/19/2009

Time Sea-Level Adjusted Pressure Absolute Pressure Temperature Relative Humidity Dew Point   
(mb) (inHg) (mb) (inHg) (C) (F) (%) (C) (F)
00:05 1023 30.21 852 25.16 0.7 33.3 63 -5.5 22
00:10 1023 30.21 852 25.16 0.7 33.3 63 -5.5 22.1
00:15 1023 30.21 852 25.16 0.7 33.2 64 -5.5 22.1
00:20 1023 30.21 852 25.16 0.7 33.3 63 -5.5 22.1
00:25 1023 30.21 852 25.16 0.7 33.3 63 -5.5 22.1
00:30 1023 30.21 852 25.16 0.5 32.8 66 -5.2 22.7
00:35 1023 30.21 852 25.16 0.1 32.2 65 -5.6 21.9
00:40 1023 30.21 853 25.19 0.1 32.3 66 -5.4 22.2
00:45 1023 30.21 853 25.19 -0 32 67 -5.5 22.1
00:50 1023 30.21 853 25.19 -0.1 31.8 67 -5.5 22.1
00:55 1023 30.21 853 25.19 -0.1 31.9 67 -5.4 22.3
01:00 1023 30.21 853 25.19 -0.1 31.9 68 -5.2 22.6
01:05 1023 30.21 853 25.19 -0.1 31.9 67 -5.4 22.2
01:10 1023 30.21 853 25.19 -0.1 31.7 68 -5.3 22.4
01:15 1023 30.21 853 25.19 -0.2 31.6 68 -5.5 22.1
01:20 1023 30.21 853 25.19 -0.3 31.4 68 -5.6 21.9
01:25 1023 30.21 853 25.19 -0.2 31.6 68 -5.4 22.2
01:30 1023 30.21 853 25.19 -0.3 31.5 68 -5.5 22.1
01:35 1023 30.21 853 25.19 -0.3 31.4 67 -5.8 21.6
01:40 1023 30.21 853 25.19 -0.2 31.6 66 -5.7 21.7
01:45 1023 30.21 853 25.19 -0.2 31.6 66 -5.9 21.4
01:50 1023 30.21 853 25.19 -0.2 31.7 66 -5.8 21.6
01:55 1023 30.21 853 25.19 -0.2 31.7 67 -5.6 21.9
02:00 1023 30.21 853 25.19 -0.3 31.5 66 -5.8 21.5
02:05 1023 30.21 853 25.19 -0.2 31.6 67 -5.6 21.8
02:10 1023 30.21 853 25.19 -0.3 31.5 67 -5.7 21.7
02:15 1023 30.21 853 25.19 -0.3 31.5 67 -5.7 21.7
02:20 1023 30.21 853 25.19 -0.3 31.5 67 -5.7 21.8
02:25 1023 30.21 853 25.19 -0.3 31.5 67 -5.7 21.7
02:30 1023 30.21 853 25.19 -0.3 31.5 66 -5.9 21.5
02:35 1023 30.21 853 25.19 -0.2 31.7 65 -6 21.2
02:40 1023 30.21 853 25.19 -0.1 31.8 66 -5.8 21.6
02:45 1023 30.21 853 25.19 -0.1 31.8 65 -5.9 21.4
02:50 1023 30.21 853 25.19 -0.1 31.8 65 -5.8 21.5
02:55 1023 30.21 853 25.19 -0.2 31.6 65 -6.1 21
03:00 1023 30.21 853 25.19 -0.2 31.7 64 -6.2 20.9
03:05 1023 30.21 853 25.19 -0.1 31.8 63 -6.4 20.5
03:10 1023 30.21 853 25.19 -0.1 31.9 62 -6.4 20.4
03:15 1023 30.21 852 25.16 -0 32 63 -6.3 20.7
03:20 1023 30.21 852 25.16 -0.1 31.9 63 -6.3 20.7
03:25 1023 30.21 852 25.16 -0.1 31.8 63 -6.2 20.8
03:30 1023 30.21 852 25.16 -0.1 31.8 63 -6.4 20.4
03:35 1023 30.21 852 25.16 -0 32 63 -6.3 20.6
03:40 1023 30.21 852 25.16 -0.1 31.9 63 -6.3 20.6
03:45 1023 30.21 852 25.16 -0.2 31.7 63 -6.3 20.6
03:50 1023 30.21 852 25.16 -0.3 31.5 64 -6.3 20.6
03:55 1023 30.21 853 25.19 -0.4 31.3 65 -6.2 20.8
04:00 1023 30.21 853 25.19 -0.4 31.2 64 -6.4 20.6
04:05 1023 30.21 853 25.19 -0.5 31.2 65 -6.3 20.6
04:10 1023 30.21 853 25.19 -0.5 31.1 64 -6.4 20.5
04:15 1023 30.21 853 25.19 -0.6 31 65 -6.3 20.6
04:20 1023 30.21 853 25.19 -0.6 30.9 65 -6.4 20.5
04:25 1023 30.21 853 25.19 -0.7 30.8 65 -6.4 20.4
04:30 1023 30.21 853 25.19 -0.7 30.7 66 -6.4 20.6
04:35 1023 30.21 852 25.16 -0.8 30.6 66 -6.3 20.6
04:40 1023 30.21 852 25.16 -0.9 30.5 66 -6.4 20.5
04:45 1023 30.21 852 25.16 -1 30.2 66 -6.5 20.3
04:50 1023 30.21 852 25.16 -1.1 30.1 67 -6.5 20.3
04:55 1023 30.21 852 25.16 -1.1 30 66 -6.7 19.9
05:00 1023 30.21 852 25.16 -1.1 30 66 -6.6 20.1
05:05 1023 30.21 852 25.16 -1.2 29.8 67 -6.6 20
05:10 1023 30.21 852 25.16 -1.3 29.7 67 -6.7 20
05:15 1023 30.21 853 25.19 -1.2 29.8 66 -6.7 20
05:20 1023 30.21 853 25.19 -1.1 30 66 -6.7 19.9
05:25 1023 30.21 853 25.19 -1 30.1 66 -6.6 20.1
05:30 1023 30.21 853 25.19 -1.1 30 66 -6.6 20.1
05:35 1023 30.21 853 25.19 -1.1 30 66 -6.6 20.1
05:40 1023 30.21 853 25.19 -1 30.2 66 -6.5 20.2
05:45 1023 30.21 853 25.19 -1.1 30.1 67 -6.4 20.4
05:50 1023 30.21 853 25.19 -1.1 30 67 -6.5 20.3
05:55 1024 30.24 853 25.19 -1 30.3 65 -6.6 20.1
06:00 1024 30.24 853 25.19 -0.9 30.4 65 -6.6 20.1
06:05 1024 30.24 853 25.19 -0.8 30.5 63 -6.9 19.5
06:10 1024 30.24 853 25.19 -0.8 30.5 64 -6.8 19.7
06:15 1024 30.24 853 25.19 -0.9 30.4 65 -6.7 20
06:20 1024 30.24 853 25.19 -1 30.1 66 -6.5 20.3
06:25 1024 30.24 853 25.19 -1.2 29.9 67 -6.6 20.2
06:30 1023 30.21 853 25.19 -1.2 29.9 67 -6.5 20.4
06:35 1023 30.21 853 25.19 -1.3 29.7 68 -6.4 20.5
06:40 1024 30.24 853 25.19 -1.4 29.5 69 -6.3 20.6
06:45 1023 30.21 853 25.19 -1.3 29.6 62 -7.6 18.3
06:50 1023 30.21 853 25.19 -0.9 30.5 58 -8.1 17.5
06:55 1023 30.21 853 25.19 -0.5 31.1 55 -8.4 16.8
07:00 1023 30.21 853 25.19 -0.3 31.5 55 -8.2 17.3
07:05 1023 30.21 853 25.19 -0.5 31.2 58 -7.8 18
07:10 1023 30.21 853 25.19 -0.6 31 59 -7.6 18.3
07:15 1023 30.21 853 25.19 -0.7 30.8 59 -7.8 18
07:20 1023 30.21 853 25.19 -0.8 30.6 58 -7.9 17.7
07:25 1023 30.21 853 25.19 -0.8 30.6 57 -8.3 17.1
07:30 1023 30.21 853 25.19 -0.7 30.8 57 -8.2 17.3
07:35 1023 30.21 853 25.19 -0.7 30.7 57 -8.1 17.4
07:40 1023 30.21 853 25.19 -0.8 30.5 58 -8.1 17.4
07:45 1023 30.21 853 25.19 -0.8 30.5 58 -8.1 17.5
07:50 1023 30.21 853 25.19 -0.9 30.4 58 -8.1 17.5
07:55 1023 30.21 853 25.19 -1.3 29.7 61 -7.9 17.7
08:00 1023 30.21 853 25.19 -1.5 29.3 62 -7.9 17.8
08:05 1023 30.21 853 25.19 -1.6 29.1 62 -8 17.5
08:10 1023 30.21 853 25.19 -1.6 29.1 61 -8.1 17.3
08:15 1023 30.21 853 25.19 -1.5 29.2 59 -8.6 16.5
08:20 1023 30.21 853 25.19 -1.4 29.6 57 -8.8 16.1
08:25 1023 30.21 853 25.19 -1.3 29.7 57 -8.8 16.1
08:30 1023 30.21 853 25.19 -1.2 29.8 56 -8.9 16
08:35 1023 30.21 853 25.19 -1.2 29.9 57 -8.7 16.3
08:40 1023 30.21 853 25.19 -0.9 30.3 57 -8.4 17
08:45 1024 30.24 853 25.19 -0.8 30.5 57 -8.3 17
08:50 1024 30.24 853 25.19 -0.7 30.7 54 -8.8 16.1
08:55 1024 30.24 853 25.19 -0.5 31.1 55 -8.4 16.8
09:00 1024 30.24 853 25.19 -0.3 31.5 54 -8.5 16.7
09:05 1024 30.24 853 25.19 0.2 32.3 54 -8.1 17.4
09:10 1024 30.24 853 25.19 -0 32 55 -8 17.5
09:15 1024 30.24 853 25.19 -0.3 31.5 55 -8.2 17.3
09:20 1024 30.24 853 25.19 -0.4 31.3 56 -8.1 17.4
09:25 1024 30.24 853 25.19 -0.2 31.7 55 -8.1 17.5
09:30 1024 30.24 853 25.19 0.4 32.7 54 -7.8 17.9
09:35 1024 30.24 853 25.19 0.6 33.1 52 -8.1 17.5
09:40 1024 30.24 853 25.19 0.9 33.7 51 -8 17.5
09:45 1024 30.24 853 25.19 1.4 34.5 51 -7.7 18.2
09:50 1024 30.24 853 25.19 1.8 35.2 49 -8 17.7
09:55 1024 30.24 853 25.19 2.1 35.7 48 -7.9 17.8
10:00 1024 30.24 853 25.19 2.5 36.5 46 -7.9 17.7
10:05 1024 30.24 853 25.19 2.3 36.2 47 -7.8 18
10:10 1024 30.24 853 25.19 2.3 36.2 46 -8.3 17.1
10:15 1024 30.24 853 25.19 2.5 36.5 45 -8.2 17.2
10:20 1024 30.24 853 25.19 2.6 36.7 44 -8.5 16.6
10:25 1024 30.24 853 25.19 2.7 36.9 45 -8.2 17.3
10:30 1024 30.24 853 25.19 2.7 36.9 45 -8.2 17.3
10:35 1024 30.24 853 25.19 3.4 38.1 40 -8.8 16.1
10:40 1024 30.24 853 25.19 4 39.1 39 -8.8 16.1
10:45 1024 30.24 853 25.19 4.4 39.9 37 -8.9 16
10:50 1024 30.24 853 25.19 4.6 40.2 36 -9.4 15.1
10:55 1024 30.24 853 25.19 4.2 39.6 33 -10.6 12.9
11:00 1024 30.24 853 25.19 4.4 40 35 -9.7 14.6
11:05 1024 30.24 853 25.19 4.5 40.1 36 -9.3 15.3
11:10 1024 30.24 853 25.19 4.6 40.3 32 -10.7 12.7
11:15 1024 30.24 853 25.19 5.2 41.4 33 -9.7 14.5
11:20 1023 30.21 853 25.19 4.9 40.8 33 -10.2 13.7
11:25 1023 30.21 853 25.19 5.3 41.5 32 -10.3 13.5
11:30 1023 30.21 853 25.19 5 41 32 -10.2 13.6
11:35 1023 30.21 853 25.19 4.9 40.8 32 -10.5 13.2
11:40 1023 30.21 852 25.16 4.6 40.3 33 -10.4 13.3
11:45 1023 30.21 852 25.16 4.2 39.6 33 -10.9 12.5
11:50 1023 30.21 852 25.16 4.5 40.1 32 -10.7 12.7
11:55 1023 30.21 852 25.16 4.7 40.5 33 -10.3 13.4
12:00 1023 30.21 852 25.16 5.3 41.6 32 -10.3 13.5
12:05 1023 30.21 852 25.16 5.8 42.5 29 -10.8 12.6
12:10 1023 30.21 852 25.16 6.2 43.2 30 -10.1 13.9
12:15 1023 30.21 852 25.16 6 42.9 31 -10 13.9
12:20 1023 30.21 852 25.16 6.3 43.3 29 -10.7 12.8
12:25 1023 30.21 852 25.16 6.2 43.1 30 -10.1 13.9
12:30 1023 30.21 852 25.16 6.2 43.1 30 -10.3 13.4
12:35 1023 30.21 852 25.16 6.4 43.6 29 -10.2 13.7
12:40 1023 30.21 852 25.16 6.5 43.8 29 -10.2 13.6
12:45 1023 30.21 852 25.16 6.5 43.6 30 -10.1 13.8
12:50 1023 30.21 852 25.16 6.4 43.5 30 -10.1 13.8
12:55 1022 30.18 852 25.16 6.1 43.1 29 -10.5 13
13:00 1022 30.18 852 25.16 6.4 43.5 29 -10.4 13.3
13:05 1022 30.18 851 25.13 6.3 43.4 29 -10.5 13.1
13:10 1022 30.18 851 25.13 6.5 43.7 29 -10.2 13.6
13:15 1022 30.18 851 25.13 6.5 43.7 30 -10.1 13.9
13:20 1022 30.18 851 25.13 6.6 43.8 27 -11.2 11.8
13:25 1022 30.18 851 25.13 6.8 44.3 29 -10.1 13.9
13:30 1022 30.18 851 25.13 6.5 43.8 29 -10.3 13.5
13:35 1022 30.18 851 25.13 6.3 43.4 29 -10.3 13.4
13:40 1022 30.18 851 25.13 6.1 43 30 -10 14
13:45 1022 30.18 851 25.13 6.4 43.5 29 -10.4 13.2
13:50 1022 30.18 851 25.13 6.9 44.3 28 -10.3 13.5
13:55 1022 30.18 851 25.13 7.4 45.3 28 -10.1 13.8
14:00 1022 30.18 851 25.13 7.4 45.4 28 -10 14
14:05 1021 30.15 851 25.13 7.3 45.2 28 -9.9 14.3
14:10 1021 30.15 851 25.13 7.3 45.1 27 -10.6 13
14:15 1021 30.15 851 25.13 6.7 44.1 28 -10.6 13
14:20 1021 30.15 851 25.13 6.8 44.2 29 -10.2 13.6
14:25 1021 30.15 850 25.1 6.4 43.5 29 -10.6 13
14:30 1021 30.15 850 25.1 7.2 44.9 27 -10.4 13.3
14:35 1021 30.15 850 25.1 7.3 45.2 29 -9.7 14.5
14:40 1021 30.15 850 25.1 7.4 45.4 27 -10.3 13.4
14:45 1021 30.15 850 25.1 7.3 45.1 28 -10.1 13.9
14:50 1021 30.15 850 25.1 7.4 45.2 27 -10.4 13.3
14:55 1021 30.15 850 25.1 7.5 45.6 28 -10.1 13.9
15:00 1021 30.15 850 25.1 7.6 45.7 25 -11.1 12.1
15:05 1021 30.15 850 25.1 7 44.7 28 -10.3 13.5
15:10 1021 30.15 850 25.1 6.7 44.1 28 -10.4 13.2
15:15 1021 30.15 850 25.1 6.5 43.7 29 -10.5 13.1
15:20 1021 30.15 850 25.1 6.8 44.2 28 -10.6 13
15:25 1021 30.15 850 25.1 6.9 44.4 29 -10.2 13.7
15:30 1020 30.12 850 25.1 6.5 43.7 29 -10.4 13.4
15:35 1020 30.12 850 25.1 6.6 43.9 29 -10.1 13.8
15:40 1020 30.12 850 25.1 6.9 44.3 28 -10.5 13.2
15:45 1020 30.12 849 25.07 6.8 44.2 25 -12.1 10.2
15:50 1020 30.12 849 25.07 6.4 43.6 27 -11.4 11.5
15:55 1020 30.12 849 25.07 6.3 43.4 27 -11.3 11.7
16:00 1020 30.12 849 25.07 6.1 43 29 -10.8 12.5
16:05 1020 30.12 849 25.07 6.2 43.1 28 -11 12.1
16:10 1020 30.12 849 25.07 5.9 42.7 30 -10.3 13.4
16:15 1020 30.12 849 25.07 5.6 42.1 31 -10.3 13.5
16:20 1020 30.12 849 25.07 5.3 41.5 30 -11 12.2
16:25 1020 30.12 849 25.07 5.3 41.5 29 -11.2 11.9
16:30 1020 30.12 849 25.07 5.4 41.8 28 -11.5 11.2
16:35 1020 30.12 849 25.07 5.5 41.9 29 -11 12.2
16:40 1020 30.12 849 25.07 5.6 42 29 -11.3 11.7
16:45 1020 30.12 849 25.07 5.7 42.3 28 -11.4 11.4
16:50 1020 30.12 849 25.07 5.7 42.2 29 -11.2 11.8
16:55 1020 30.12 849 25.07 5.8 42.4 30 -10.7 12.7
17:00 1020 30.12 849 25.07 5.5 41.9 28 -11.4 11.4
17:05 1019 30.09 849 25.07 5.3 41.5 28 -11.9 10.7
17:10 1019 30.09 849 25.07 5.2 41.4 27 -12.1 10.2
17:15 1019 30.09 849 25.07 5.2 41.4 28 -11.9 10.5
17:20 1019 30.09 849 25.07 5.2 41.3 29 -11.6 11.1
17:25 1019 30.09 849 25.07 5.1 41.2 28 -11.8 10.7
17:30 1019 30.09 848 25.04 5.1 41.1 28 -12 10.4
17:35 1019 30.09 848 25.04 5.1 41.2 26 -12.8 8.9
17:40 1019 30.09 848 25.04 5.1 41.1 26 -12.7 9.1
17:45 1019 30.09 848 25.04 5.1 41.2 27 -12.3 9.9
17:50 1019 30.09 848 25.04 4.9 40.9 28 -11.9 10.5
17:55 1019 30.09 848 25.04 4.8 40.6 28 -12.1 10.3
18:00 1019 30.09 848 25.04 4.7 40.5 29 -11.8 10.7
18:05 1019 30.09 848 25.04 4.6 40.3 30 -11.7 11
18:10 1019 30.09 848 25.04 4.3 39.7 30 -12 10.4
18:15 1019 30.09 848 25.04 4.6 40.3 25 -13.7 7.4
18:20 1019 30.09 848 25.04 4.6 40.3 29 -12 10.4
18:25 1019 30.09 848 25.04 4.1 39.5 31 -11.6 11.1
18:30 1019 30.09 848 25.04 3.8 38.9 31 -11.9 10.5
18:35 1019 30.09 848 25.04 3.7 38.7 31 -11.9 10.6
18:40 1019 30.09 848 25.04 3.7 38.7 30 -12.3 9.8
18:45 1018 30.06 848 25.04 3.8 38.8 28 -13.2 8.3
18:50 1018 30.06 848 25.04 4 39.2 27 -13.5 7.8
18:55 1018 30.06 848 25.04 4.2 39.5 26 -13.8 7.2
19:00 1018 30.06 848 25.04 4.4 39.9 25 -13.8 7.1
19:05 1018 30.06 848 25.04 4.3 39.8 27 -12.9 8.7
19:10 1018 30.06 848 25.04 4.2 39.6 26 -13.6 7.6
19:15 1018 30.06 848 25.04 4 39.3 28 -12.9 8.9
19:20 1018 30.06 847 25.01 3.7 38.7 31 -11.9 10.6
19:25 1018 30.06 847 25.01 3.7 38.7 29 -12.7 9.2
19:30 1018 30.06 847 25.01 3.7 38.7 30 -12.5 9.6
19:35 1018 30.06 847 25.01 3.6 38.4 31 -12.1 10.1
19:40 1018 30.06 847 25.01 3.5 38.2 32 -11.7 10.9
19:45 1018 30.06 847 25.01 3.3 38 32 -12 10.5
19:50 1018 30.06 847 25.01 3.3 38 32 -11.9 10.6
19:55 1018 30.06 847 25.01 3.4 38 31 -12.1 10.2
20:00 1018 30.06 847 25.01 3.4 38.2 31 -12.2 10
20:05 1018 30.06 847 25.01 3.6 38.4 29 -12.7 9.1
20:10 1018 30.06 847 25.01 3.6 38.5 30 -12.4 9.7
20:15 1018 30.06 847 25.01 3.4 38.2 31 -12.1 10.2
20:20 1018 30.06 847 25.01 3.4 38.1 30 -12.7 9.2
20:25 1018 30.06 847 25.01 3.4 38.2 30 -12.7 9.2
20:30 1018 30.06 847 25.01 3.4 38.1 29 -12.9 8.8
20:35 1018 30.06 847 25.01 3.4 38.1 30 -12.4 9.6
20:40 1018 30.06 847 25.01 3.3 38 30 -12.5 9.6
20:45 1018 30.06 847 25.01 3.3 38 32 -11.9 10.5
20:50 1018 30.06 847 25.01 3.2 37.8 31 -12.5 9.5
20:55 1017 30.03 847 25.01 3.2 37.8 30 -12.8 9
21:00 1017 30.03 847 25.01 3.3 38 30 -12.8 8.9
21:05 1017 30.03 847 25.01 3.4 38 30 -12.7 9.1
21:10 1017 30.03 847 25.01 3.2 37.8 30 -12.6 9.3
21:15 1017 30.03 847 25.01 3.4 38.1 28 -13.4 7.8
21:20 1017 30.03 847 25.01 3.5 38.3 29 -13 8.6
21:25 1017 30.03 847 25.01 3.5 38.3 28 -13.5 7.7
21:30 1017 30.03 847 25.01 3.7 38.6 27 -13.9 7
21:35 1017 30.03 846 24.98 3.6 38.5 28 -13.3 8.1
21:40 1017 30.03 846 24.98 3.5 38.3 27 -14.1 6.7
21:45 1017 30.03 846 24.98 3.5 38.3 29 -13 8.5
21:50 1017 30.03 846 24.98 3.4 38.1 29 -13.2 8.3
21:55 1017 30.03 846 24.98 3.4 38.1 28 -13.5 7.7
22:00 1017 30.03 846 24.98 3.4 38.1 29 -13.1 8.4
22:05 1017 30.03 846 24.98 3.2 37.8 30 -13 8.7
22:10 1017 30.03 846 24.98 3.2 37.8 28 -13.5 7.7
22:15 1017 30.03 846 24.98 3.2 37.7 30 -12.9 8.7
22:20 1017 30.03 846 24.98 3.1 37.6 30 -12.9 8.8
22:25 1017 30.03 846 24.98 3 37.5 31 -12.4 9.7
22:30 1017 30.03 846 24.98 2.9 37.2 30 -13 8.7
22:35 1017 30.03 846 24.98 3 37.5 30 -13 8.6
22:40 1017 30.03 846 24.98 3.1 37.7 30 -13 8.6
22:45 1017 30.03 846 24.98 3.1 37.6 30 -12.8 8.9
22:50 1017 30.03 846 24.98 3.1 37.6 30 -12.9 8.9
22:55 1017 30.03 846 24.98 3.2 37.7 30 -12.8 8.9
23:00 1017 30.03 846 24.98 3.2 37.8 33 -11.5 11.3
23:05 1017 30.03 846 24.98 2.9 37.1 36 -10.9 12.4
23:10 1017 30.03 846 24.98 2.5 36.5 36 -11 12.2
23:15 1017 30.03 846 24.98 2.3 36.2 36 -11.1 11.9
23:20 1017 30.03 846 24.98 2.3 36.2 37 -11 12.1
23:25 1017 30.03 846 24.98 2.2 35.9 38 -10.8 12.5
23:30 1017 30.03 846 24.98 2 35.6 37 -11.3 11.7
23:35 1017 30.03 846 24.98 1.9 35.5 38 -11 12.1
23:40 1017 30.03 846 24.98 1.9 35.3 36 -11.7 11
23:45 1017 30.03 846 24.98 1.8 35.3 37 -11.2 11.8
23:50 1017 30.03 846 24.98 1.8 35.3 36 -11.6 11.1
23:55 1017 30.03 846 24.98 1.8 35.2 36 -11.7 11
24:00 1017 30.03 846 24.98 1.7 35 38 -11.3 11.7